createdAt,value
2023-04-10T05:46:44.172Z,18.9
2023-04-10T05:52:34.903Z,19.6
2023-04-10T05:58:25.490Z,20.3
2023-04-10T06:04:16.801Z,20
2023-04-10T06:10:07.562Z,21.3
2023-04-10T06:15:59.767Z,20.5
2023-04-10T06:21:53.178Z,19.8
2023-04-10T06:27:51.371Z,19.4
2023-04-10T06:33:41.195Z,21.4
2023-04-10T06:39:33.631Z,20.4
2023-04-10T06:45:27.121Z,19.9
2023-04-10T06:51:18.112Z,18.7
2023-04-10T06:57:08.948Z,21.4
2023-04-10T07:03:01.627Z,18.4
2023-04-10T07:08:53.579Z,19.7
2023-04-10T07:14:45.579Z,18
2023-04-10T07:20:37.252Z,17.3
2023-04-10T07:26:42.058Z,17.7
2023-04-10T07:32:33.263Z,17.6
2023-04-10T07:38:28.062Z,17.4
2023-04-10T07:44:19.290Z,15.6
2023-04-10T07:50:11.769Z,15.3
2023-04-10T07:56:03.031Z,14.4
2023-04-10T08:01:54.666Z,17.9
2023-04-10T08:07:46.900Z,15.7
2023-04-10T08:13:38.499Z,15.6
2023-04-10T08:19:31.318Z,15
2023-04-10T08:25:24.423Z,14.6
2023-04-10T08:31:15.877Z,14.6
2023-04-10T08:37:11.958Z,14.1
2023-04-10T08:43:03.893Z,13.9
2023-04-10T08:48:55.249Z,13.1
2023-04-10T08:54:47.568Z,12.6
2023-04-10T09:00:39.097Z,13.4
2023-04-10T09:06:31.880Z,12.8
2023-04-10T09:12:21.757Z,12.8
2023-04-10T09:18:14.638Z,11.8
2023-04-10T09:24:06.028Z,12.6
2023-04-10T09:29:57.033Z,12.3
2023-04-10T09:35:47.872Z,10.9
2023-04-10T09:41:39.203Z,11
2023-04-10T09:47:31.107Z,10.2
2023-04-10T09:53:23.415Z,10.1
2023-04-10T09:59:16.522Z,9.1
2023-04-10T10:05:07.892Z,9.7
2023-04-10T10:10:59.999Z,8.3
2023-04-10T10:16:51.198Z,10.6
2023-04-10T10:22:43.445Z,12.2
2023-04-10T10:28:37.140Z,7.6
2023-04-10T10:34:32.158Z,8.1
2023-04-10T10:40:25.276Z,6.7
2023-04-10T10:46:17.521Z,7.4
2023-04-10T10:52:11.726Z,7.3
2023-04-10T10:58:03.970Z,6.5
2023-04-10T11:03:56.338Z,5.3
2023-04-10T11:09:48.886Z,5.4
2023-04-10T11:15:41.395Z,6.2
2023-04-10T11:21:35.861Z,4.7
2023-04-10T11:27:30.482Z,5.2
2023-04-10T11:33:22.348Z,3.8
2023-04-10T11:39:15.325Z,4.1
2023-04-10T11:45:07.280Z,4.1
2023-04-10T11:50:59.937Z,5.6
2023-04-10T11:56:54.881Z,4.6
2023-04-10T12:02:46.314Z,4
2023-04-10T12:08:37.443Z,4
2023-04-10T12:14:29.240Z,4
2023-04-10T12:20:20.951Z,3.8
2023-04-10T12:26:11.990Z,3.5
2023-04-10T12:32:02.861Z,3.8
2023-04-10T12:37:55.658Z,4.2
2023-04-10T12:43:47.522Z,5.1
2023-04-10T12:49:42.664Z,4.2
2023-04-10T12:55:38.440Z,3.6
2023-04-10T13:01:32.394Z,4.7
2023-04-10T13:07:33.901Z,4.7
2023-04-10T13:13:37.929Z,3.7
2023-04-10T13:19:29.331Z,3.7
2023-04-10T13:25:20.986Z,5.4
2023-04-10T13:31:13.886Z,4.3
2023-04-10T13:37:05.827Z,4.1
2023-04-10T13:43:02.179Z,4.5
2023-04-10T13:49:00.570Z,3.5
2023-04-10T13:54:53.530Z,3.6
2023-04-10T14:00:44.853Z,3.9
2023-04-10T14:06:39.463Z,4.1
2023-04-10T14:12:30.377Z,3.2
2023-04-10T14:18:23.436Z,3.1
2023-04-10T14:24:17.821Z,2.9
2023-04-10T14:30:11.000Z,3.4
2023-04-10T14:36:05.205Z,3
2023-04-10T14:41:59.528Z,2.8
2023-04-10T14:47:51.120Z,3.5
2023-04-10T14:53:44.185Z,3.6
2023-04-10T14:59:34.354Z,2.8
2023-04-10T15:05:24.456Z,2.7
2023-04-10T15:11:16.101Z,3.9
2023-04-10T15:17:13.395Z,3.3
2023-04-10T15:23:09.892Z,3.1
2023-04-10T15:29:03.428Z,4.7
2023-04-10T18:27:01.573Z,4.7
2023-04-10T20:08:34.957Z,4.4
2023-04-10T20:14:41.773Z,6.2
2023-04-10T21:14:15.132Z,3.5
2023-04-10T21:32:48.299Z,3.6
2023-04-10T21:39:06.939Z,4.1
2023-04-10T21:45:27.096Z,6.7
2023-04-10T21:51:33.365Z,7.3
2023-04-10T22:03:44.685Z,5.3
2023-04-10T22:28:22.883Z,4
2023-04-10T22:34:15.056Z,4.8
2023-04-10T22:40:07.822Z,4.5
2023-04-10T22:46:00.543Z,4.5
2023-04-10T22:51:53.004Z,2.9
2023-04-10T22:57:44.912Z,2.7
2023-04-10T23:03:37.526Z,2.5
2023-04-10T23:09:28.188Z,2.8
2023-04-10T23:15:19.446Z,1.9
2023-04-10T23:21:10.883Z,1.8
2023-04-10T23:27:03.448Z,3
2023-04-10T23:32:55.786Z,2.3
2023-04-10T23:38:50.372Z,1.8
2023-04-10T23:44:42.542Z,5.3
2023-04-10T23:50:33.832Z,3.1
2023-04-10T23:56:26.029Z,3.3
